Blue Oak Ranch Reserve, California Weather observations

Data are for 10 minute period ending at time listed.
 Day   Time   Solar   Ave.   Ave.  Ave.  Vector  Max.   Baro.   Total    
  of    of     Rad.   Air    Rel.  Wind   Wind   Wind  Press.  Precip.   
Year   Day            Temp.  Hum.  Speed  Dir.   Gust                    
2018   (PST)  Kw/m2    F      %     mph   deg.    mph    mb.     in.     
-------------------------------------------------------------------------
 317   19:50   0.00   50.0    18    1.1   292     2.1   960.9    0.00 
 317   20:00   0.00   49.8    18    0.3    68     2.1   960.8    0.00 
 317   20:10   0.00   49.5    18    1.5   284     3.8   960.8    0.00 
 317   20:20   0.00   49.0    18    0.1   292     1.8   960.8    0.00 
 317   20:30   0.00   49.3    18    0.5   278     2.3   960.9    0.00 
 317   20:40   0.00   48.5    19    1.9   287     3.6   960.9    0.00 
 317   20:50   0.00   47.6    20    1.7   297     3.3   961.1    0.00 
 317   21:00   0.00   47.7    19    0.2   298     1.8   961.1    0.00 
 317   21:10   0.00   47.5    20    1.2   291     2.8   961.2    0.00 
 317   21:20   0.00   47.5    19    1.8    68     3.2   961.2    0.00 
 317   21:30   0.00   47.9    19    0.3    34     2.0   961.3    0.00 
 317   21:40   0.00   46.8    20    2.2   286     4.0   961.3    0.00 
 317   21:50   0.00   46.3    20    1.2   298     2.6   961.3    0.00 
 317   22:00   0.00   47.0    19    0.1   273     1.7   961.3    0.00 
 317   22:10   0.00   47.8    18    2.4   289     3.3   961.3    0.00 
 317   22:20   0.00   46.8    19    1.4    68     2.6   961.3    0.00 
 317   22:30   0.00   46.0    19    1.3    54     2.1   961.3    0.00 
 317   22:40   0.00   45.7    19    0.4   314     1.8   961.4    0.00 
 317   22:50   0.00   46.0    19    0.6   291     2.2   961.4    0.00 
 317   23:00   0.00   45.8    19    0.1    69     1.0   961.3    0.00 
 317   23:10   0.00   45.9    19    0.1   273     1.8   961.3    0.00 
 317   23:20   0.00   45.4    19    0.6   293     2.6   961.2    0.00 
 317   23:30   0.00   45.2    19    0.0   132     0.8   961.2    0.00 
 317   23:40   0.00   45.3    19    0.3   238     1.2   961.2    0.00 
 317   23:50   0.00   44.6    19    0.1   232     1.0   961.2    0.00 
 318    0:00   0.00   44.4    19    0.2   277     2.1   961.0    0.00 
 318    0:10   0.00   43.0    20    1.1   296     2.3   961.0    0.00 
 318    0:20   0.00   42.8    20    0.2   294     1.2   960.9    0.00 
 318    0:30   0.00   44.1    19    0.4    66     1.7   960.9    0.00 
 318    0:40   0.00   43.8    19    0.0     0     0.0   960.9    0.00 
 318    0:50   0.00   43.3    19    0.1    79     0.9   960.8    0.00 
 318    1:00   0.00   43.4    19    0.5   281     2.3   960.8    0.00 
 318    1:10   0.00   43.9    18    0.1   269     1.1   960.8    0.00 
 318    1:20   0.00   44.0    18    0.5    53     1.7   960.7    0.00 
 318    1:30   0.00   43.7    18    0.6   301     2.3   960.7    0.00 
 318    1:40   0.00   44.0    18    0.8   274     3.1   960.6    0.00 
 318    1:50   0.00   43.4    18    2.7   285     3.7   960.6    0.00 
 318    2:00   0.00   43.5    18    0.8   259     2.6   960.6    0.00 
 318    2:10   0.00   44.7    17    2.0    59     3.6   960.6    0.00 
 318    2:20   0.00   43.7    18    1.3   290     3.9   960.5    0.00 
 318    2:30   0.00   42.2    19    2.9   290     4.2   960.4    0.00 
 318    2:40   0.00   43.4    17    1.9    55     3.7   960.4    0.00 
 318    2:50   0.00   44.5    17    1.8    29     3.5   960.3    0.00 
 318    3:00   0.00   43.4    18    1.6   306     3.9   960.3    0.00 
 318    3:10   0.00   43.5    18    1.4    31     4.5   960.3    0.00 
 318    3:20   0.00   43.1    18    0.6   285     2.5   960.3    0.00 
 318    3:30   0.00   42.8    18    0.9    44     2.2   960.3    0.00 
 318    3:40   0.00   42.9    18    1.2   291     2.5   960.2    0.00 
 318    3:50   0.00   42.7    18    0.4   318     2.1   960.1    0.00 
 318    4:00   0.00   43.0    18    0.7   288     3.8   960.1    0.00 
 318    4:10   0.00   42.8    18    1.9   296     3.9   960.2    0.00 
 318    4:20   0.00   42.9    18    0.9    79     2.5   960.3    0.00 
 318    4:30   0.00   43.0    18    0.3    51     2.7   960.3    0.00 
 318    4:40   0.00   43.3    18    0.5    66     3.4   960.3    0.00 
 318    4:50   0.00   42.4    18    1.4   296     3.3   960.3    0.00 
 318    5:00   0.00   42.4    18    0.6    75     2.1   960.4    0.00 
 318    5:10   0.00   42.5    18    0.3   288     2.5   960.2    0.00 
 318    5:20   0.00   41.3    20    1.6   281     2.8   960.2    0.00 
 318    5:30   0.00   42.0    19    1.1   300     2.6   960.3    0.00 
 318    5:40   0.00   42.5    19    2.2   331     3.4   960.3    0.00 
 318    5:50   0.00   42.2    18    1.7    29     3.4   960.3    0.00 
 318    6:00   0.00   43.0    18    0.9   290     2.1   960.3    0.00 
 318    6:10   0.00   42.8    18    0.2    12     1.2   960.3    0.00 
 318    6:20   0.00   42.6    19    0.0   175     0.7   960.4    0.00 
 318    6:30   0.00   42.1    19    0.1   256     1.2   960.5    0.00 
 318    6:40   0.00   42.5    19    1.1    66     3.1   960.4    0.00 
 318    6:50   0.01   42.0    19    0.9   297     2.0   960.4    0.00 
 318    7:00   0.01   42.0    19    0.2   290     1.6   960.4    0.00 
 318    7:10   0.02   43.3    18    1.1   291     3.3   960.5    0.00 
 318    7:20   0.02   43.1    19    1.1   313     3.4   960.5    0.00 
 318    7:30   0.05   43.6    19    0.4    80     1.5   960.4    0.00 
 318    7:40   0.10   45.6    18    0.4   285     1.6   960.4    0.00 
 318    7:50   0.12   48.8    17    0.2   270     1.0   960.5    0.00 
 318    8:00   0.15   50.3    18    0.8    58     1.8   960.5    0.00 
 318    8:10   0.18   51.9    18    0.5    85     2.0   960.6    0.00 
 318    8:20   0.20   54.2    17    0.6   285     2.8   960.6    0.00 
 318    8:30   0.23   57.0    16    1.2   288     2.9   960.6    0.00 
 318    8:40   0.26   60.4    14    0.6   280     1.8   960.7    0.00 
 318    8:50   0.29   63.3    13    0.2   124     1.5   960.7    0.00 
 318    9:00   0.32   64.5    12    1.5   146     2.2   960.7    0.00 
 318    9:10   0.34   64.8     9    1.5   155     2.3   960.7    0.00 
 318    9:20   0.36   66.1     9    1.7   191     3.9   960.7    0.00 
 318    9:30   0.39   67.8    10    2.9   252     4.5   960.6    0.00 
 318    9:40   0.41   67.3    10    3.1   230     5.5   960.6    0.00 
 318    9:50   0.43   67.4    10    2.8   230     5.1   960.5    0.00 
 318   10:00   0.45   66.3    10    3.3   175     4.8   960.4    0.00 
 318   10:10   0.47   67.5    10    3.1   222     5.6   960.3    0.00 
 318   10:20   0.48   69.1     9    2.9   247     6.1   960.3    0.00 
 318   10:30   0.50   69.5     9    3.8   241     6.1   960.2    0.00 
 318   10:40   0.52   70.2     8    4.1   254     6.8   960.1    0.00 
 318   10:50   0.53   70.2     8    4.4   237     7.9   960.0    0.00 
 318   11:00   0.54   70.0     8    4.7   241     8.3   959.9    0.00 
 318   11:10   0.54   69.3     9    5.4   230     7.9   959.8    0.00 
 318   11:20   0.55   68.4    12    5.8   233    10.2   959.7    0.00 
 318   11:30   0.56   69.2    14    4.8   230     6.8   959.5    0.00 
 318   11:40   0.56   69.3    15    4.2   231     5.8   959.4    0.00 
 318   11:50   0.57   70.5    16    4.7   235     7.4   959.2    0.00 
 318   12:00   0.56   69.2    20    3.9   248     7.7   959.0    0.00 
 318   12:10   0.56   69.3    22    4.8   255     7.7   958.8    0.00 
 318   12:20   0.55   69.8    21    4.9   248     9.7   958.7    0.00 
 318   12:30   0.55   69.5    20    4.6   235     7.8   958.4    0.00 
 318   12:40   0.53   68.0    22    5.7   227     8.8   958.3    0.00 
 318   12:50   0.52   67.3    24    5.3   230     8.5   958.3    0.00 
 318   13:00   0.52   66.6    24    4.4   222     7.7   958.1    0.00 
 318   13:10   0.51   68.1    22    2.8   238     5.3   957.9    0.00 
 318   13:20   0.50   70.0    19    3.4   244     5.5   957.7    0.00 
 318   13:30   0.47   70.3    19    4.2   262     8.5   957.6    0.00 
 318   13:40   0.45   68.2    23    5.3   236     9.6   957.6    0.00 
 318   13:50   0.44   67.2    24    4.1   231     6.9   957.5    0.00 
 318   14:00   0.41   66.5    24    4.6   226     8.2   957.5    0.00 
 318   14:10   0.39   66.7    24    3.7   239     6.4   957.4    0.00 
 318   14:20   0.37   67.3    22    3.8   254     6.7   957.4    0.00 
 318   14:30   0.33   68.0    21    4.4   254     6.9   957.3    0.00 
 318   14:40   0.31   67.6    22    3.6   262     7.3   957.3    0.00 
 318   14:50   0.28   65.9    24    4.2   233     7.7   957.3    0.00 
 318   15:00   0.25   64.5    26    2.9   245     5.9   957.3    0.00 
 318   15:10   0.23   64.5    26    3.0   239     6.2   957.3    0.00 
 318   15:20   0.20   63.6    27    2.7   248     6.2   957.3    0.00 
 318   15:30   0.17   63.3    26    1.2   240     3.0   957.2    0.00 
 318   15:40   0.15   62.7    26    0.4   183     2.0   957.1    0.00 
 318   15:50   0.12   62.5    25    1.7   268     5.3   957.1    0.00 
 318   16:00   0.10   62.4    25    2.0   254     3.9   957.1    0.00 
 318   16:10   0.08   61.6    27    1.8   246     3.1   957.1    0.00 
 318   16:20   0.06   60.6    29    0.4   230     2.1   957.0    0.00 
 318   16:30   0.04   58.4    27    0.0     0     0.0   957.0    0.00 
 318   16:40   0.02   55.9    28    0.8    29     2.1   956.9    0.00 
 318   16:50   0.01   54.3    31    1.0   344     2.8   957.0    0.00 
 318   17:00   0.01   52.7    34    1.4   314     3.4   957.0    0.00 
 318   17:10   0.00   51.0    36    0.0    45     0.7   956.9    0.00 
 318   17:20   0.00   50.0    36    0.2   295     1.9   956.9    0.00 
 318   17:30   0.00   48.8    36    1.1   293     3.0   956.9    0.00 
 318   17:40   0.00   47.9    37    0.1    58     1.5   957.0    0.00 
 318   17:50   0.00   47.1    38    0.4    64     1.5   957.0    0.00 
 318   18:00   0.00   47.0    38    0.0    98     0.6   957.1    0.00 
 318   18:10   0.00   46.2    38    1.1    58     2.3   957.1    0.00 
 318   18:20   0.00   45.4    40    0.0   291     0.8   957.1    0.00 
 318   18:30   0.00   45.4    40    0.0     0     0.0   957.0    0.00 
 318   18:40   0.00   45.2    39    0.6   298     2.0   957.1    0.00 
 318   18:50   0.00   44.7    40    0.1   293     1.4   957.1    0.00 
 318   19:00   0.00   44.7    39    0.8   290     2.3   957.1    0.00 
 318   19:10   0.00   44.7    39    0.6   332     1.9   957.2    0.00 
 318   19:20   0.00   44.4    38    1.5    66     2.8   957.2    0.00 
 318   19:30   0.00   44.0    39    0.2    17     1.2   957.2    0.00 
 318   19:40   0.00   43.9    40    0.2   303     0.9   957.2    0.00 

Return to Blue Oak Ranch Reserve graphs page.


Western Regional Climate Center,wrcc@dri.edu